.
WxDataArchive / Data Records for 2008-04-12
2008-04-11 April 2008 2008-04-13

Data Records for Saturday, 12 April 2008

Time	Temp	Chill	HIndex	Humid	Dewpt	 Wind 	HiWind	WindDir	Rain 	Barom 
-----	----	-----	------	-----	-----	------	------	-------	-----	----- 
00:00	47.0	44.1	47.0	61	34.3	6	14	270	0.00	29.529 
00:05	47.0	44.7	47.0	62	34.7	5	15	270	0.00	29.531 
00:10	46.8	44.5	46.8	62	34.5	5	13	270	0.00	29.529 
00:15	46.8	43.9	46.8	62	34.5	6	15	270	0.00	29.526 
00:20	46.7	44.3	46.7	63	34.8	5	14	270	0.00	29.527 
00:25	46.7	45.1	46.7	63	34.8	4	11	270	0.00	29.526 
00:30	46.5	46.5	46.5	64	35.0	3	9	270	0.00	29.525 
00:35	46.4	46.4	46.4	64	34.9	3	7	270	0.00	29.523 
00:40	46.4	46.4	46.4	65	35.3	3	8	248	0.00	29.523 
00:45	46.2	46.2	46.2	66	35.5	2	5	248	0.00	29.523 
00:50	46.1	44.4	46.1	65	35.0	4	11	270	0.00	29.522 
00:55	46.0	46.0	46.0	66	35.3	3	8	248	0.00	29.521 
01:00	46.0	46.0	46.0	66	35.3	2	7	270	0.00	29.521 
01:05	46.0	44.2	46.0	65	34.9	4	9	270	0.00	29.521 
01:10	46.1	44.4	46.1	65	35.0	4	12	248	0.00	29.520 
01:15	46.1	43.6	46.1	64	34.6	5	11	248	0.00	29.521 
01:20	46.1	44.4	46.1	64	34.6	4	15	248	0.00	29.522 
01:25	46.1	43.6	46.1	63	34.2	5	15	270	0.00	29.522 
01:30	46.0	43.5	46.0	62	33.7	5	13	270	0.00	29.522 
01:35	46.0	43.5	46.0	63	34.1	5	13	270	0.00	29.522 
01:40	45.8	45.8	45.8	64	34.3	3	11	248	0.00	29.521 
01:45	45.8	42.7	45.8	63	33.9	6	13	270	0.00	29.520 
01:50	45.7	43.9	45.7	63	33.8	4	9	248	0.00	29.519 
01:55	45.5	43.7	45.5	64	34.0	4	15	270	0.00	29.517 
02:00	45.5	42.3	45.5	64	34.0	6	16	270	0.00	29.518 
02:05	45.5	43.7	45.5	65	34.4	4	10	248	0.00	29.515 
02:10	45.4	45.4	45.4	66	34.7	2	6	270	0.00	29.521 
02:15	45.1	45.1	45.1	68	35.2	3	10	248	0.00	29.522 
02:20	44.8	44.8	44.8	69	35.3	2	5	270	0.00	29.523 
02:25	44.6	44.6	44.6	69	35.1	3	6	270	0.00	29.523 
02:30	44.6	42.6	44.6	69	35.1	4	12	270	0.00	29.523 
02:35	44.6	42.6	44.6	68	34.7	4	15	270	0.00	29.524 
02:40	44.6	41.9	44.6	67	34.3	5	13	248	0.00	29.524 
02:45	44.6	44.6	44.6	67	34.3	3	7	248	0.00	29.524 
02:50	44.6	41.9	44.6	67	34.3	5	11	270	0.00	29.523 
02:55	44.5	42.5	44.5	68	34.6	4	11	248	0.00	29.523 
03:00	44.5	42.5	44.5	68	34.6	4	10	270	0.00	29.521 
03:05	44.3	44.3	44.3	68	34.4	3	11	248	0.00	29.529 
03:10	44.3	42.3	44.3	67	34.0	4	12	270	0.00	29.529 
03:15	44.2	42.2	44.2	68	34.3	4	11	270	0.00	29.529 
03:20	44.2	44.2	44.2	68	34.3	2	4	270	0.00	29.529 
03:25	44.1	42.1	44.1	68	34.2	4	11	248	0.00	29.529 
03:30	43.9	41.8	43.9	69	34.4	4	11	270	0.00	29.529 
03:35	43.6	43.6	43.6	70	34.5	3	10	270	0.00	29.530 
03:40	43.5	43.5	43.5	71	34.7	1	4	248	0.00	29.529 
03:45	43.3	43.3	43.3	71	34.5	2	5	248	0.00	29.528 
03:50	43.2	43.2	43.2	71	34.4	3	6	248	0.00	29.529 
03:55	43.3	41.1	43.3	69	33.8	4	14	248	0.00	29.529 
04:00	43.5	43.5	43.5	68	33.7	3	7	248	0.00	29.528 
04:05	43.6	41.5	43.6	67	33.4	4	9	248	0.00	29.526 
04:10	43.8	41.7	43.8	66	33.2	4	10	248	0.00	29.526 
04:15	43.9	41.1	43.9	66	33.3	5	12	270	0.00	29.525 
04:20	43.9	43.9	43.9	66	33.3	3	9	270	0.00	29.526 
04:25	43.8	43.8	43.8	66	33.2	3	9	248	0.00	29.525 
04:30	43.8	41.7	43.8	66	33.2	4	10	270	0.00	29.525 
04:35	43.6	43.6	43.6	66	33.0	3	11	270	0.00	29.525 
04:40	43.6	41.5	43.6	65	32.6	4	12	270	0.00	29.526 
04:45	43.5	41.4	43.5	66	32.9	4	13	248	0.00	29.526 
04:50	43.5	41.4	43.5	66	32.9	4	10	270	0.00	29.524 
04:55	43.3	41.1	43.3	66	32.7	4	12	270	0.00	29.526 
05:00	43.3	41.1	43.3	66	32.7	4	10	248	0.00	29.525 
05:05	43.3	41.1	43.3	66	32.7	4	11	248	0.00	29.530 
05:10	43.3	41.1	43.3	66	32.7	4	12	248	0.00	29.532 
05:15	43.2	41.0	43.2	66	32.6	4	8	248	0.00	29.533 
05:20	43.2	40.2	43.2	66	32.6	5	11	248	0.00	29.534 
05:25	43.1	40.9	43.1	67	32.9	4	12	270	0.00	29.533 
05:30	43.1	40.9	43.1	67	32.9	4	10	270	0.00	29.534 
05:35	43.1	40.1	43.1	67	32.9	5	13	270	0.00	29.533 
05:40	42.9	39.9	42.9	67	32.7	5	13	270	0.00	29.533 
05:45	42.9	40.7	42.9	67	32.7	4	11	270	0.00	29.533 
05:50	42.9	42.9	42.9	67	32.7	3	10	270	0.00	29.533 
05:55	42.8	40.6	42.8	70	33.7	4	11	248	0.00	29.535 
06:00	42.3	39.2	42.3	72	33.9	5	14	270	0.00	29.535 
06:05	42.1	38.9	42.1	74	34.4	5	14	270	0.00	29.542 
06:10	41.8	41.8	41.8	75	34.5	3	7	270	0.00	29.543 
06:15	41.8	39.4	41.8	75	34.5	4	9	248	0.00	29.543 
06:20	41.8	41.8	41.8	74	34.1	3	9	270	0.00	29.546 
06:25	41.9	41.9	41.9	73	33.9	3	8	248	0.00	29.547 
06:30	41.9	39.5	41.9	73	33.9	4	10	248	0.00	29.549 
06:35	42.1	39.7	42.1	72	33.7	4	10	248	0.00	29.551 
06:40	41.9	41.9	41.9	73	33.9	3	10	248	0.00	29.547 
06:45	41.9	39.5	41.9	72	33.5	4	10	248	0.00	29.548 
06:50	41.9	41.9	41.9	72	33.5	3	9	248	0.00	29.549 
06:55	41.9	41.9	41.9	72	33.5	3	10	270	0.00	29.550 
07:00	41.9	39.5	41.9	72	33.5	4	13	270	0.00	29.549 
07:05	41.9	39.5	41.9	73	33.9	4	9	248	0.00	29.553 
07:10	41.9	39.5	41.9	73	33.9	4	9	248	0.00	29.552 
07:15	41.8	41.8	41.8	74	34.1	3	9	248	0.00	29.554 
07:20	41.9	39.5	41.9	73	33.9	4	10	248	0.00	29.553 
07:25	41.9	41.9	41.9	73	33.9	3	7	248	0.00	29.552 
07:30	42.1	39.7	42.1	72	33.7	4	10	248	0.00	29.552 
07:35	42.1	38.9	42.1	72	33.7	5	11	248	0.00	29.554 
07:40	42.1	42.1	42.1	72	33.7	3	7	248	0.00	29.554 
07:45	42.1	42.1	42.1	73	34.1	3	7	248	0.00	29.554 
07:50	41.8	38.6	41.8	74	34.1	5	14	248	0.00	29.555 
07:55	41.6	38.4	41.6	75	34.3	5	12	270	0.00	29.553 
08:00	41.6	39.2	41.6	76	34.6	4	11	270	0.00	29.554 
08:05	41.6	39.2	41.6	77	34.9	4	10	248	0.00	29.554 
08:10	41.8	39.4	41.8	77	35.1	4	13	248	0.00	29.554 
08:15	41.6	38.4	41.6	78	35.3	5	13	248	0.01	29.556 
08:20	40.9	37.5	40.9	81	35.5	5	14	270	0.00	29.561 
08:25	40.3	37.7	40.3	82	35.2	4	9	270	0.00	29.560 
08:30	40.3	40.3	40.3	83	35.6	3	9	225	0.00	29.560 
08:35	40.6	40.6	40.6	83	35.8	3	10	248	0.00	29.559 
08:40	40.8	36.7	40.8	81	35.4	6	16	270	0.00	29.561 
08:45	41.1	37.8	41.1	80	35.4	5	12	270	0.00	29.560 
08:50	41.2	41.2	41.2	80	35.5	3	10	270	0.00	29.560 
08:55	41.3	38.0	41.3	78	35.0	5	16	270	0.00	29.560 
09:00	41.3	41.3	41.3	79	35.3	3	9	248	0.00	29.560 
09:05	41.3	41.3	41.3	79	35.3	3	10	248	0.00	29.561 
09:10	41.3	41.3	41.3	79	35.3	3	11	248	0.00	29.562 
09:15	41.5	41.5	41.5	79	35.5	2	6	248	0.00	29.564 
09:20	41.5	41.5	41.5	78	35.2	3	9	248	0.00	29.566 
09:25	41.5	41.5	41.5	78	35.2	3	6	270	0.00	29.565 
09:30	41.6	41.6	41.6	78	35.3	3	6	248	0.00	29.566 
09:35	41.5	38.2	41.5	76	34.5	5	12	270	0.00	29.567 
09:40	41.1	41.1	41.1	81	35.7	3	6	248	0.01	29.574 
09:45	40.8	40.8	40.8	84	36.3	3	9	248	0.00	29.573 
09:50	40.9	37.5	40.9	83	36.1	5	12	270	0.00	29.574 
09:55	41.3	38.0	41.3	82	36.2	5	11	248	0.00	29.575 
10:00	41.6	38.4	41.6	79	35.6	5	10	270	0.00	29.576 
10:05	41.6	39.2	41.6	79	35.6	4	12	270	0.00	29.577 
10:10	41.9	39.5	41.9	78	35.5	4	10	270	0.00	29.575 
10:15	42.2	38.4	42.2	75	34.9	6	13	270	0.00	29.576 
10:20	42.2	39.9	42.2	75	34.9	4	13	270	0.00	29.576 
10:25	42.2	39.1	42.2	75	34.9	5	13	248	0.00	29.581 
10:30	42.3	39.2	42.3	77	35.6	5	12	270	0.00	29.581 
10:35	42.3	42.3	42.3	77	35.6	3	7	270	0.00	29.581 
10:40	41.9	38.7	41.9	78	35.5	5	11	270	0.00	29.585 
10:45	41.9	39.5	41.9	80	36.2	4	10	270	0.00	29.585 
10:50	42.1	38.9	42.1	79	36.1	5	13	270	0.00	29.583 
10:55	41.9	38.0	41.9	77	35.2	6	12	248	0.00	29.586 
11:00	41.9	38.7	41.9	77	35.2	5	10	270	0.00	29.588 
11:05	42.2	39.1	42.2	77	35.5	5	11	270	0.00	29.589 
11:10	42.3	39.2	42.3	75	35.0	5	12	270	0.00	29.589 
11:15	42.1	37.7	42.1	75	34.8	7	17	270	0.00	29.591 
11:20	42.1	38.3	42.1	73	34.1	6	14	270	0.00	29.590 
11:25	42.1	37.7	42.1	71	33.4	7	15	270	0.00	29.591 
11:30	42.3	39.2	42.3	73	34.3	5	13	270	0.00	29.592 
11:35	42.5	38.7	42.5	72	34.1	6	13	248	0.00	29.589 
11:40	42.3	39.2	42.3	75	35.0	5	13	248	0.00	29.594 
11:45	42.8	42.8	42.8	76	35.8	3	8	248	0.00	29.589 
11:50	42.8	40.6	42.8	73	34.8	4	12	248	0.00	29.591 
11:55	42.6	40.3	42.6	75	35.2	4	11	248	0.00	29.596 
12:00	42.5	39.4	42.5	74	34.8	5	15	270	0.00	29.594 
12:05	43.1	40.1	43.1	70	34.0	5	13	270	0.00	29.596 
12:10	43.3	40.3	43.3	69	33.8	5	13	270	0.00	29.601 
12:15	43.2	39.6	43.2	68	33.4	6	14	270	0.00	29.601 
12:20	43.1	40.1	43.1	69	33.6	5	10	270	0.00	29.604 
12:25	42.6	42.6	42.6	74	34.9	3	7	270	0.00	29.606 
12:30	41.8	38.6	41.8	76	34.8	5	10	270	0.00	29.611 
12:35	40.8	37.4	40.8	80	35.1	5	11	270	0.00	29.613 
12:40	40.6	37.2	40.6	81	35.2	5	11	270	0.00	29.612 
12:45	40.5	37.1	40.5	81	35.1	5	15	270	0.01	29.616 
12:50	40.3	37.7	40.3	82	35.2	4	12	248	0.00	29.619 
12:55	40.6	38.0	40.6	83	35.8	4	11	248	0.00	29.618 
13:00	41.1	38.6	41.1	83	36.3	4	12	248	0.00	29.618 
13:05	41.5	38.2	41.5	80	35.8	5	11	270	0.00	29.617 
13:10	41.8	41.8	41.8	79	35.8	3	7	270	0.00	29.619 
13:15	41.6	39.2	41.6	79	35.6	4	10	248	0.00	29.621 
13:20	41.3	38.8	41.3	80	35.6	4	13	270	0.00	29.622 
13:25	41.5	41.5	41.5	81	36.1	3	9	270	0.00	29.621 
13:30	40.9	37.5	40.9	81	35.5	5	16	270	0.00	29.626 
13:35	40.8	38.2	40.8	84	36.3	4	11	270	0.01	29.624 
13:40	41.2	41.2	41.2	84	36.7	3	11	248	0.00	29.623 
13:45	41.5	39.1	41.5	83	36.7	4	13	270	0.00	29.621 
13:50	41.9	38.7	41.9	80	36.2	5	16	270	0.00	29.622 
13:55	41.8	37.3	41.8	76	34.8	7	16	248	0.00	29.623 
14:00	41.5	39.1	41.5	80	35.8	4	13	248	0.00	29.628 
14:05	41.3	41.3	41.3	84	36.8	3	10	248	0.00	29.629 
14:10	41.3	38.0	41.3	81	35.9	5	12	248	0.00	29.630 
14:15	41.6	39.2	41.6	81	36.2	4	13	270	0.00	29.629 
14:20	41.9	39.5	41.9	80	36.2	4	13	270	0.00	29.630 
14:25	41.9	38.7	41.9	78	35.5	5	13	270	0.00	29.629 
14:30	41.8	38.6	41.8	77	35.1	5	11	270	0.00	29.628 
14:35	41.9	38.7	41.9	78	35.5	5	14	248	0.00	29.633 
14:40	41.8	38.6	41.8	77	35.1	5	14	270	0.00	29.636 
14:45	41.8	39.4	41.8	78	35.5	4	10	270	0.00	29.637 
14:50	41.6	38.4	41.6	77	34.9	5	12	270	0.00	29.639 
14:55	40.8	36.7	40.8	80	35.1	6	14	270	0.00	29.643 
15:00	40.3	37.7	40.3	83	35.6	4	10	270	0.00	29.643 
15:05	40.3	36.8	40.3	83	35.6	5	11	270	0.00	29.645 
15:10	40.5	37.9	40.5	83	35.8	4	10	248	0.00	29.648 
15:15	40.6	40.6	40.6	82	35.5	3	11	248	0.01	29.649 
15:20	40.2	37.5	40.2	84	35.8	4	11	270	0.00	29.658 
15:25	39.8	37.1	39.8	85	35.7	4	9	270	0.00	29.657 
15:30	39.5	35.2	39.5	85	35.4	6	14	270	0.00	29.659 
15:35	39.2	36.4	39.2	87	35.7	4	12	270	0.01	29.663 
15:40	39.1	36.3	39.1	87	35.6	4	11	248	0.00	29.663 
15:45	39.1	36.3	39.1	88	35.9	4	13	248	0.00	29.664 
15:50	39.2	36.4	39.2	87	35.7	4	10	248	0.00	29.666 
15:55	39.3	36.5	39.3	87	35.8	4	12	270	0.00	29.664 
16:00	39.5	36.7	39.5	87	36.0	4	10	270	0.00	29.663 
16:05	39.6	36.9	39.6	86	35.8	4	11	270	0.00	29.663 
16:10	39.9	39.9	39.9	86	36.1	2	6	270	0.00	29.663 
16:15	40.1	37.4	40.1	86	36.3	4	10	270	0.00	29.666 
16:20	40.1	40.1	40.1	85	36.0	3	9	248	0.00	29.665 
16:25	40.2	37.5	40.2	84	35.8	4	8	248	0.00	29.670 
16:30	40.2	40.2	40.2	83	35.5	3	7	270	0.00	29.672 
16:35	40.2	37.5	40.2	83	35.5	4	11	248	0.00	29.671 
16:40	40.2	37.5	40.2	83	35.5	4	9	270	0.00	29.672 
16:45	40.2	37.5	40.2	84	35.8	4	12	248	0.00	29.674 
16:50	40.2	40.2	40.2	84	35.8	3	7	270	0.00	29.674 
16:55	40.3	37.7	40.3	83	35.6	4	14	248	0.00	29.674 
17:00	40.3	37.7	40.3	81	34.9	4	10	270	0.00	29.675 
17:05	40.3	37.7	40.3	81	34.9	4	11	248	0.00	29.675 
17:10	40.2	36.0	40.2	81	34.8	6	14	270	0.00	29.677 
17:15	40.1	36.6	40.1	82	35.1	5	14	248	0.00	29.681 
17:20	39.9	39.9	39.9	83	35.2	3	10	270	0.00	29.682 
17:25	39.8	39.8	39.8	85	35.7	3	11	270	0.00	29.687 
17:30	39.6	39.6	39.6	85	35.5	3	10	248	0.00	29.687 
17:35	39.5	39.5	39.5	86	35.7	3	12	248	0.01	29.689 
17:40	39.5	39.5	39.5	87	36.0	2	7	248	0.00	29.688 
17:45	39.5	39.5	39.5	88	36.2	3	6	248	0.00	29.688 
17:50	39.5	39.5	39.5	88	36.2	3	10	248	0.00	29.690 
17:55	39.3	39.3	39.3	88	36.0	3	7	248	0.00	29.690 
18:00	39.3	39.3	39.3	88	36.0	3	10	270	0.00	29.695 
18:05	39.2	36.4	39.2	88	35.9	4	10	270	0.00	29.695 
18:10	39.2	39.2	39.2	88	35.9	3	6	270	0.00	29.695 
18:15	39.3	39.3	39.3	88	36.0	3	6	270	0.00	29.696 
18:20	39.5	39.5	39.5	87	36.0	3	6	248	0.00	29.698 
18:25	39.5	39.5	39.5	87	36.0	2	6	270	0.00	29.698 
18:30	39.5	39.5	39.5	86	35.7	3	7	248	0.00	29.700 
18:35	39.6	39.6	39.6	86	35.8	3	8	248	0.00	29.698 
18:40	39.6	39.6	39.6	85	35.5	3	7	270	0.00	29.702 
18:45	39.6	39.6	39.6	85	35.5	3	7	270	0.00	29.705 
18:50	39.5	39.5	39.5	86	35.7	3	7	270	0.00	29.706 
18:55	39.3	39.3	39.3	86	35.5	3	6	248	0.00	29.708 
19:00	39.2	39.2	39.2	87	35.7	3	7	248	0.00	29.708 
19:05	39.2	39.2	39.2	87	35.7	3	11	248	0.00	29.709 
19:10	39.2	39.2	39.2	86	35.4	3	9	270	0.00	29.713 
19:15	39.2	39.2	39.2	86	35.4	3	10	248	0.00	29.716 
19:20	39.2	39.2	39.2	84	34.8	3	11	270	0.00	29.717 
19:25	39.2	39.2	39.2	84	34.8	3	10	248	0.00	29.719 
19:30	39.2	39.2	39.2	84	34.8	3	10	248	0.00	29.717 
19:35	39.2	39.2	39.2	84	34.8	2	9	270	0.00	29.718 
19:40	39.1	39.1	39.1	85	35.0	3	5	248	0.00	29.721 
19:45	39.2	39.2	39.2	85	35.1	1	4	248	0.00	29.722 
19:50	39.2	39.2	39.2	85	35.1	2	6	248	0.00	29.723 
19:55	39.1	39.1	39.1	86	35.3	2	6	248	0.00	29.723 
20:00	39.1	39.1	39.1	86	35.3	3	8	248	0.00	29.724 
20:05	39.1	39.1	39.1	86	35.3	2	5	248	0.00	29.725 
20:10	39.1	39.1	39.1	86	35.3	2	5	248	0.00	29.728 
20:15	39.1	39.1	39.1	86	35.3	3	7	248	0.00	29.728 
20:20	39.1	39.1	39.1	86	35.3	2	7	248	0.01	29.731 
20:25	39.1	39.1	39.1	86	35.3	3	6	248	0.00	29.732 
20:30	38.9	38.9	38.9	87	35.4	3	10	248	0.00	29.733 
20:35	38.9	38.9	38.9	87	35.4	2	6	270	0.00	29.734 
20:40	38.9	38.9	38.9	87	35.4	2	6	225	0.00	29.737 
20:45	38.9	38.9	38.9	88	35.7	1	5	248	0.00	29.737 
20:50	38.9	38.9	38.9	88	35.7	2	7	248	0.00	29.737 
20:55	38.9	38.9	38.9	88	35.7	3	7	248	0.00	29.737 
21:00	38.9	38.9	38.9	88	35.7	2	4	248	0.00	29.737 
21:05	38.9	38.9	38.9	89	35.9	2	6	248	0.00	29.737 
21:10	38.8	38.8	38.8	89	35.8	2	5	248	0.00	29.737 
21:15	38.8	38.8	38.8	89	35.8	2	6	248	0.00	29.737 
21:20	38.8	38.8	38.8	89	35.8	3	9	248	0.00	29.736 
21:25	38.8	38.8	38.8	90	36.1	2	5	248	0.00	29.735 
21:30	38.8	38.8	38.8	90	36.1	2	4	270	0.00	29.737 
21:35	38.8	38.8	38.8	90	36.1	3	6	248	0.00	29.737 
21:40	38.8	38.8	38.8	90	36.1	2	6	248	0.00	29.736 
21:45	38.8	38.8	38.8	90	36.1	2	6	248	0.00	29.736 
21:50	38.8	38.8	38.8	90	36.1	2	5	248	0.00	29.733 
21:55	38.8	38.8	38.8	90	36.1	2	6	248	0.00	29.734 
22:00	38.8	38.8	38.8	89	35.8	2	10	248	0.00	29.735 
22:05	38.8	38.8	38.8	89	35.8	2	5	248	0.00	29.734 
22:10	38.8	38.8	38.8	89	35.8	2	7	248	0.00	29.734 
22:15	38.8	38.8	38.8	89	35.8	2	5	248	0.00	29.734 
22:20	38.8	38.8	38.8	89	35.8	2	7	248	0.00	29.734 
22:25	38.8	38.8	38.8	89	35.8	1	4	270	0.00	29.735 
22:30	38.5	38.5	38.5	88	35.3	2	4	248	0.00	29.736 
22:35	38.3	38.3	38.3	88	35.1	2	5	248	0.00	29.736 
22:40	38.2	38.2	38.2	88	35.0	2	5	248	0.00	29.736 
22:45	38.0	38.0	38.0	88	34.8	1	5	270	0.00	29.737 
22:50	38.0	38.0	38.0	88	34.8	1	3	270	0.00	29.738 
22:55	37.8	37.8	37.8	88	34.6	2	5	270	0.00	29.738 
23:00	37.6	37.6	37.6	87	34.1	2	9	270	0.01	29.738 
23:05	37.5	37.5	37.5	87	34.0	2	5	270	0.00	29.738 
23:10	37.5	37.5	37.5	87	34.0	1	4	270	0.00	29.739 
23:15	37.3	37.3	37.3	88	34.1	2	4	248	0.00	29.739 
23:20	37.2	37.2	37.2	88	34.0	2	4	248	0.00	29.738 
23:25	37.2	37.2	37.2	88	34.0	2	4	248	0.00	29.738 
23:30	37.0	37.0	37.0	88	33.8	1	3	248	0.00	29.738 
23:35	36.9	36.9	36.9	89	34.0	2	4	270	0.00	29.739 
23:40	36.8	36.8	36.8	89	33.9	1	3	248	0.00	29.739 
23:45	36.6	36.6	36.6	89	33.7	1	3	270	0.00	29.739 
23:50	36.6	36.6	36.6	90	33.9	1	3	248	0.00	29.739 
23:55	36.5	36.5	36.5	90	33.9	1	3	225	0.00	29.740 

CoCoRaHS
IN-AL-39
A2 Web Hosting
Creative Commons License
GoDaddy
Look for:

loaded 2017-10-17 18:13:50 • last modified 2010-11-18 10:43:29
Privacy PolicyDisclaimer
• wx.awcolley.com is powered by PmWiki v.2002016 •
• all content (unless otherwise noted) © 2017 A W Colley